sensor_id;sensor_type;location;lat;lon;timestamp;P1;durP1;ratioP1;P2;durP2;ratioP2
53890;SDS011;41337;51.400;-2.342;2023-10-19T00:00:41;6.25;;;1.35;;
53890;SDS011;41337;51.400;-2.342;2023-10-19T00:05:51;5.07;;;0.82;;
53890;SDS011;41337;51.400;-2.342;2023-10-19T00:10:59;12.10;;;0.80;;
53890;SDS011;41337;51.400;-2.342;2023-10-19T00:16:26;2.67;;;0.60;;
53890;SDS011;41337;51.400;-2.342;2023-10-19T00:21:31;10.50;;;0.90;;
53890;SDS011;41337;51.400;-2.342;2023-10-19T00:26:51;7.03;;;0.80;;
53890;SDS011;41337;51.400;-2.342;2023-10-19T00:32:00;6.28;;;0.60;;
53890;SDS011;41337;51.400;-2.342;2023-10-19T00:37:00;3.92;;;0.80;;
53890;SDS011;41337;51.400;-2.342;2023-10-19T00:42:09;7.63;;;1.02;;
53890;SDS011;41337;51.400;-2.342;2023-10-19T00:52:24;2.13;;;0.93;;
53890;SDS011;41337;51.400;-2.342;2023-10-19T00:57:26;6.65;;;0.70;;
53890;SDS011;41337;51.400;-2.342;2023-10-19T01:02:34;2.33;;;0.50;;
53890;SDS011;41337;51.400;-2.342;2023-10-19T01:23:29;5.13;;;1.08;;
53890;SDS011;41337;51.400;-2.342;2023-10-19T01:28:31;3.75;;;1.02;;
53890;SDS011;41337;51.400;-2.342;2023-10-19T01:33:53;9.98;;;1.55;;
53890;SDS011;41337;51.400;-2.342;2023-10-19T01:38:56;4.50;;;1.05;;
53890;SDS011;41337;51.400;-2.342;2023-10-19T01:49:14;9.90;;;1.08;;
53890;SDS011;41337;51.400;-2.342;2023-10-19T01:54:26;2.97;;;0.90;;
53890;SDS011;41337;51.400;-2.342;2023-10-19T01:59:29;2.38;;;0.70;;
53890;SDS011;41337;51.400;-2.342;2023-10-19T02:09:33;8.57;;;0.93;;
53890;SDS011;41337;51.400;-2.342;2023-10-19T02:14:34;4.40;;;1.40;;
53890;SDS011;41337;51.400;-2.342;2023-10-19T02:29:46;11.60;;;2.25;;
53890;SDS011;41337;51.400;-2.342;2023-10-19T02:34:47;12.55;;;2.10;;
53890;SDS011;41337;51.400;-2.342;2023-10-19T02:39:48;14.88;;;3.10;;
53890;SDS011;41337;51.400;-2.342;2023-10-19T02:44:49;17.42;;;2.75;;
53890;SDS011;41337;51.400;-2.342;2023-10-19T02:49:52;20.17;;;3.08;;
53890;SDS011;41337;51.400;-2.342;2023-10-19T02:54:57;12.73;;;2.20;;
53890;SDS011;41337;51.400;-2.342;2023-10-19T03:00:00;20.45;;;3.13;;
53890;SDS011;41337;51.400;-2.342;2023-10-19T03:05:13;20.02;;;3.80;;
53890;SDS011;41337;51.400;-2.342;2023-10-19T03:15:17;28.48;;;4.22;;
53890;SDS011;41337;51.400;-2.342;2023-10-19T03:20:24;17.60;;;3.30;;
53890;SDS011;41337;51.400;-2.342;2023-10-19T03:25:36;18.38;;;3.60;;
53890;SDS011;41337;51.400;-2.342;2023-10-19T03:30:55;11.27;;;2.42;;
53890;SDS011;41337;51.400;-2.342;2023-10-19T03:40:59;17.40;;;3.67;;
53890;SDS011;41337;51.400;-2.342;2023-10-19T03:46:07;27.33;;;4.13;;
53890;SDS011;41337;51.400;-2.342;2023-10-19T03:51:34;27.92;;;3.80;;
53890;SDS011;41337;51.400;-2.342;2023-10-19T03:56:58;31.15;;;4.55;;
53890;SDS011;41337;51.400;-2.342;2023-10-19T04:07:11;37.20;;;6.22;;
53890;SDS011;41337;51.400;-2.342;2023-10-19T04:12:26;26.77;;;4.60;;
53890;SDS011;41337;51.400;-2.342;2023-10-19T04:17:35;26.77;;;3.95;;
53890;SDS011;41337;51.400;-2.342;2023-10-19T04:38:53;5.53;;;1.45;;
53890;SDS011;41337;51.400;-2.342;2023-10-19T04:44:05;8.27;;;1.50;;
53890;SDS011;41337;51.400;-2.342;2023-10-19T04:49:11;8.30;;;1.52;;
53890;SDS011;41337;51.400;-2.342;2023-10-19T04:54:16;11.18;;;1.30;;
53890;SDS011;41337;51.400;-2.342;2023-10-19T05:26:05;15.48;;;2.28;;
53890;SDS011;41337;51.400;-2.342;2023-10-19T05:52:35;24.25;;;3.00;;
53890;SDS011;41337;51.400;-2.342;2023-10-19T05:57:43;26.17;;;3.00;;
53890;SDS011;41337;51.400;-2.342;2023-10-19T06:29:19;31.40;;;3.42;;
53890;SDS011;41337;51.400;-2.342;2023-10-19T06:44:31;20.00;;;3.05;;
53890;SDS011;41337;51.400;-2.342;2023-10-19T06:49:32;27.23;;;3.03;;
53890;SDS011;41337;51.400;-2.342;2023-10-19T06:54:36;27.25;;;2.90;;
53890;SDS011;41337;51.400;-2.342;2023-10-19T07:04:42;25.27;;;3.92;;
53890;SDS011;41337;51.400;-2.342;2023-10-19T07:09:49;20.50;;;2.97;;
53890;SDS011;41337;51.400;-2.342;2023-10-19T07:14:51;24.03;;;3.40;;
53890;SDS011;41337;51.400;-2.342;2023-10-19T07:19:53;16.23;;;2.70;;
53890;SDS011;41337;51.400;-2.342;2023-10-19T07:24:55;20.92;;;2.50;;
53890;SDS011;41337;51.400;-2.342;2023-10-19T07:29:58;19.70;;;3.05;;
53890;SDS011;41337;51.400;-2.342;2023-10-19T07:35:00;19.10;;;2.60;;
53890;SDS011;41337;51.400;-2.342;2023-10-19T07:40:04;21.13;;;3.95;;
53890;SDS011;41337;51.400;-2.342;2023-10-19T07:45:07;20.52;;;2.97;;
53890;SDS011;41337;51.400;-2.342;2023-10-19T07:50:12;26.80;;;4.00;;
53890;SDS011;41337;51.400;-2.342;2023-10-19T07:55:20;18.50;;;3.50;;
53890;SDS011;41337;51.400;-2.342;2023-10-19T08:00:26;28.45;;;4.18;;
53890;SDS011;41337;51.400;-2.342;2023-10-19T08:05:29;26.77;;;4.25;;
53890;SDS011;41337;51.400;-2.342;2023-10-19T08:10:32;21.05;;;3.55;;
53890;SDS011;41337;51.400;-2.342;2023-10-19T08:15:34;32.45;;;3.90;;
53890;SDS011;41337;51.400;-2.342;2023-10-19T08:25:41;20.25;;;2.65;;
53890;SDS011;41337;51.400;-2.342;2023-10-19T08:35:56;17.42;;;2.10;;
53890;SDS011;41337;51.400;-2.342;2023-10-19T08:41:00;10.82;;;2.03;;
53890;SDS011;41337;51.400;-2.342;2023-10-19T08:46:02;16.00;;;2.85;;
53890;SDS011;41337;51.400;-2.342;2023-10-19T08:51:05;17.40;;;2.40;;
53890;SDS011;41337;51.400;-2.342;2023-10-19T08:56:10;13.98;;;2.80;;
53890;SDS011;41337;51.400;-2.342;2023-10-19T09:01:12;21.75;;;3.67;;
53890;SDS011;41337;51.400;-2.342;2023-10-19T09:06:13;12.75;;;2.70;;
53890;SDS011;41337;51.400;-2.342;2023-10-19T09:11:15;34.75;;;5.63;;
53890;SDS011;41337;51.400;-2.342;2023-10-19T09:16:19;29.17;;;4.70;;
53890;SDS011;41337;51.400;-2.342;2023-10-19T09:21:21;36.60;;;5.32;;
53890;SDS011;41337;51.400;-2.342;2023-10-19T09:26:25;26.73;;;4.72;;
53890;SDS011;41337;51.400;-2.342;2023-10-19T09:31:27;42.75;;;5.45;;
53890;SDS011;41337;51.400;-2.342;2023-10-19T09:36:29;28.17;;;5.28;;
53890;SDS011;41337;51.400;-2.342;2023-10-19T09:41:31;27.83;;;3.70;;
53890;SDS011;41337;51.400;-2.342;2023-10-19T09:46:33;19.15;;;4.25;;
53890;SDS011;41337;51.400;-2.342;2023-10-19T09:51:40;29.55;;;5.15;;
53890;SDS011;41337;51.400;-2.342;2023-10-19T09:56:52;32.05;;;5.65;;
53890;SDS011;41337;51.400;-2.342;2023-10-19T10:02:06;36.97;;;5.00;;
53890;SDS011;41337;51.400;-2.342;2023-10-19T10:07:10;27.50;;;4.50;;
53890;SDS011;41337;51.400;-2.342;2023-10-19T10:12:24;22.35;;;5.07;;
53890;SDS011;41337;51.400;-2.342;2023-10-19T10:17:27;26.17;;;3.83;;
53890;SDS011;41337;51.400;-2.342;2023-10-19T10:22:30;22.38;;;3.13;;
53890;SDS011;41337;51.400;-2.342;2023-10-19T10:27:51;20.30;;;4.00;;
53890;SDS011;41337;51.400;-2.342;2023-10-19T10:32:54;29.17;;;4.17;;
53890;SDS011;41337;51.400;-2.342;2023-10-19T10:38:17;21.13;;;4.00;;
53890;SDS011;41337;51.400;-2.342;2023-10-19T10:43:18;22.60;;;3.90;;
53890;SDS011;41337;51.400;-2.342;2023-10-19T10:48:21;19.13;;;3.30;;
53890;SDS011;41337;51.400;-2.342;2023-10-19T10:53:23;22.10;;;3.25;;
53890;SDS011;41337;51.400;-2.342;2023-10-19T10:58:26;18.20;;;3.38;;
53890;SDS011;41337;51.400;-2.342;2023-10-19T11:03:27;22.27;;;3.55;;
53890;SDS011;41337;51.400;-2.342;2023-10-19T11:08:30;20.40;;;3.42;;
53890;SDS011;41337;51.400;-2.342;2023-10-19T11:13:33;26.90;;;3.10;;
53890;SDS011;41337;51.400;-2.342;2023-10-19T11:18:36;26.00;;;3.60;;
53890;SDS011;41337;51.400;-2.342;2023-10-19T11:28:44;26.20;;;4.38;;
53890;SDS011;41337;51.400;-2.342;2023-10-19T11:33:51;25.80;;;3.83;;
53890;SDS011;41337;51.400;-2.342;2023-10-19T11:38:53;22.63;;;3.90;;
53890;SDS011;41337;51.400;-2.342;2023-10-19T11:43:54;19.50;;;3.67;;
53890;SDS011;41337;51.400;-2.342;2023-10-19T11:48:54;26.38;;;3.42;;
53890;SDS011;41337;51.400;-2.342;2023-10-19T11:53:55;26.75;;;3.70;;
53890;SDS011;41337;51.400;-2.342;2023-10-19T11:58:56;25.88;;;3.38;;
53890;SDS011;41337;51.400;-2.342;2023-10-19T12:03:57;15.68;;;3.33;;
53890;SDS011;41337;51.400;-2.342;2023-10-19T12:08:58;23.48;;;3.35;;
53890;SDS011;41337;51.400;-2.342;2023-10-19T12:14:03;19.88;;;3.05;;
53890;SDS011;41337;51.400;-2.342;2023-10-19T12:19:05;21.65;;;3.28;;
53890;SDS011;41337;51.400;-2.342;2023-10-19T12:24:10;23.08;;;3.80;;
53890;SDS011;41337;51.400;-2.342;2023-10-19T12:29:12;20.42;;;3.88;;
53890;SDS011;41337;51.400;-2.342;2023-10-19T12:34:17;16.50;;;2.83;;
53890;SDS011;41337;51.400;-2.342;2023-10-19T12:39:19;19.35;;;2.72;;
53890;SDS011;41337;51.400;-2.342;2023-10-19T12:44:52;15.75;;;2.83;;
53890;SDS011;41337;51.400;-2.342;2023-10-19T12:49:53;14.43;;;2.35;;
53890;SDS011;41337;51.400;-2.342;2023-10-19T12:54:54;14.00;;;2.60;;
53890;SDS011;41337;51.400;-2.342;2023-10-19T13:00:00;17.55;;;2.70;;
53890;SDS011;41337;51.400;-2.342;2023-10-19T13:05:24;16.10;;;2.55;;
53890;SDS011;41337;51.400;-2.342;2023-10-19T13:10:29;16.05;;;2.97;;
53890;SDS011;41337;51.400;-2.342;2023-10-19T13:15:34;14.65;;;2.97;;
53890;SDS011;41337;51.400;-2.342;2023-10-19T13:20:36;11.05;;;2.38;;
53890;SDS011;41337;51.400;-2.342;2023-10-19T13:25:38;18.58;;;2.88;;
53890;SDS011;41337;51.400;-2.342;2023-10-19T13:30:42;9.63;;;2.22;;
53890;SDS011;41337;51.400;-2.342;2023-10-19T13:35:50;9.95;;;2.47;;
53890;SDS011;41337;51.400;-2.342;2023-10-19T13:40:51;14.10;;;3.75;;
53890;SDS011;41337;51.400;-2.342;2023-10-19T13:45:53;13.85;;;2.47;;
53890;SDS011;41337;51.400;-2.342;2023-10-19T13:50:54;18.52;;;2.78;;
53890;SDS011;41337;51.400;-2.342;2023-10-19T13:56:00;22.88;;;3.65;;
53890;SDS011;41337;51.400;-2.342;2023-10-19T14:01:01;20.35;;;2.78;;
53890;SDS011;41337;51.400;-2.342;2023-10-19T14:06:03;14.27;;;3.00;;
53890;SDS011;41337;51.400;-2.342;2023-10-19T14:11:04;17.98;;;3.03;;
53890;SDS011;41337;51.400;-2.342;2023-10-19T14:16:06;16.42;;;3.08;;
53890;SDS011;41337;51.400;-2.342;2023-10-19T14:21:14;14.48;;;2.33;;
53890;SDS011;41337;51.400;-2.342;2023-10-19T14:26:17;16.58;;;2.25;;
53890;SDS011;41337;51.400;-2.342;2023-10-19T14:31:17;12.50;;;2.55;;
53890;SDS011;41337;51.400;-2.342;2023-10-19T14:36:20;15.10;;;2.28;;
53890;SDS011;41337;51.400;-2.342;2023-10-19T14:41:22;17.30;;;2.50;;
53890;SDS011;41337;51.400;-2.342;2023-10-19T14:46:25;16.90;;;2.92;;
53890;SDS011;41337;51.400;-2.342;2023-10-19T14:51:27;15.02;;;3.00;;
53890;SDS011;41337;51.400;-2.342;2023-10-19T14:56:28;12.27;;;2.90;;
53890;SDS011;41337;51.400;-2.342;2023-10-19T15:01:29;5.95;;;1.65;;
53890;SDS011;41337;51.400;-2.342;2023-10-19T15:06:29;9.38;;;2.03;;
53890;SDS011;41337;51.400;-2.342;2023-10-19T15:11:31;14.82;;;1.80;;
53890;SDS011;41337;51.400;-2.342;2023-10-19T15:16:32;9.75;;;2.55;;
53890;SDS011;41337;51.400;-2.342;2023-10-19T15:21:33;17.92;;;3.10;;
53890;SDS011;41337;51.400;-2.342;2023-10-19T15:26:34;17.13;;;2.60;;
53890;SDS011;41337;51.400;-2.342;2023-10-19T15:31:34;14.60;;;3.03;;
53890;SDS011;41337;51.400;-2.342;2023-10-19T15:37:10;16.70;;;2.63;;
53890;SDS011;41337;51.400;-2.342;2023-10-19T15:42:11;21.13;;;3.90;;
53890;SDS011;41337;51.400;-2.342;2023-10-19T15:47:33;16.55;;;3.20;;
53890;SDS011;41337;51.400;-2.342;2023-10-19T15:52:36;16.40;;;2.70;;
53890;SDS011;41337;51.400;-2.342;2023-10-19T15:57:45;17.40;;;3.25;;
53890;SDS011;41337;51.400;-2.342;2023-10-19T16:02:46;9.80;;;1.83;;
53890;SDS011;41337;51.400;-2.342;2023-10-19T16:08:09;17.60;;;2.42;;
53890;SDS011;41337;51.400;-2.342;2023-10-19T16:13:11;10.77;;;2.05;;
53890;SDS011;41337;51.400;-2.342;2023-10-19T16:18:13;21.02;;;2.47;;
53890;SDS011;41337;51.400;-2.342;2023-10-19T16:23:14;18.52;;;4.25;;
53890;SDS011;41337;51.400;-2.342;2023-10-19T16:28:14;10.35;;;2.40;;
53890;SDS011;41337;51.400;-2.342;2023-10-19T16:33:15;14.93;;;2.67;;
53890;SDS011;41337;51.400;-2.342;2023-10-19T16:38:16;12.95;;;3.05;;
53890;SDS011;41337;51.400;-2.342;2023-10-19T16:43:17;18.48;;;3.35;;
53890;SDS011;41337;51.400;-2.342;2023-10-19T16:48:18;15.63;;;3.05;;
53890;SDS011;41337;51.400;-2.342;2023-10-19T16:53:19;15.90;;;3.00;;
53890;SDS011;41337;51.400;-2.342;2023-10-19T16:58:19;27.27;;;3.95;;
53890;SDS011;41337;51.400;-2.342;2023-10-19T17:03:20;18.40;;;3.17;;
53890;SDS011;41337;51.400;-2.342;2023-10-19T17:08:21;24.92;;;3.80;;
53890;SDS011;41337;51.400;-2.342;2023-10-19T17:13:22;25.90;;;4.43;;
53890;SDS011;41337;51.400;-2.342;2023-10-19T17:18:23;22.75;;;4.35;;
53890;SDS011;41337;51.400;-2.342;2023-10-19T17:23:24;20.90;;;4.20;;
53890;SDS011;41337;51.400;-2.342;2023-10-19T17:28:25;21.77;;;3.30;;
53890;SDS011;41337;51.400;-2.342;2023-10-19T17:33:26;25.85;;;3.17;;
53890;SDS011;41337;51.400;-2.342;2023-10-19T17:38:32;17.98;;;2.80;;
53890;SDS011;41337;51.400;-2.342;2023-10-19T17:43:32;14.35;;;2.10;;
53890;SDS011;41337;51.400;-2.342;2023-10-19T17:48:35;22.27;;;2.30;;
53890;SDS011;41337;51.400;-2.342;2023-10-19T17:53:37;16.17;;;3.30;;
53890;SDS011;41337;51.400;-2.342;2023-10-19T17:58:40;9.80;;;2.00;;
53890;SDS011;41337;51.400;-2.342;2023-10-19T18:03:42;14.13;;;2.40;;
53890;SDS011;41337;51.400;-2.342;2023-10-19T18:08:45;9.88;;;1.65;;
53890;SDS011;41337;51.400;-2.342;2023-10-19T18:13:46;9.93;;;1.80;;
53890;SDS011;41337;51.400;-2.342;2023-10-19T18:18:47;6.25;;;1.50;;
53890;SDS011;41337;51.400;-2.342;2023-10-19T18:23:48;10.25;;;1.98;;
53890;SDS011;41337;51.400;-2.342;2023-10-19T18:28:49;11.82;;;2.00;;
53890;SDS011;41337;51.400;-2.342;2023-10-19T18:33:50;9.23;;;1.73;;
53890;SDS011;41337;51.400;-2.342;2023-10-19T18:38:51;9.50;;;1.35;;
53890;SDS011;41337;51.400;-2.342;2023-10-19T18:43:52;7.35;;;1.27;;
53890;SDS011;41337;51.400;-2.342;2023-10-19T18:48:54;5.10;;;1.35;;
53890;SDS011;41337;51.400;-2.342;2023-10-19T18:53:55;7.32;;;0.95;;
53890;SDS011;41337;51.400;-2.342;2023-10-19T18:58:56;4.75;;;1.23;;
53890;SDS011;41337;51.400;-2.342;2023-10-19T19:03:59;4.72;;;0.93;;
53890;SDS011;41337;51.400;-2.342;2023-10-19T19:09:00;6.05;;;1.13;;
53890;SDS011;41337;51.400;-2.342;2023-10-19T19:14:07;4.07;;;0.73;;
53890;SDS011;41337;51.400;-2.342;2023-10-19T19:19:11;3.45;;;0.93;;
53890;SDS011;41337;51.400;-2.342;2023-10-19T19:24:13;5.18;;;1.30;;
53890;SDS011;41337;51.400;-2.342;2023-10-19T19:29:14;7.47;;;1.48;;
53890;SDS011;41337;51.400;-2.342;2023-10-19T19:34:18;5.30;;;1.67;;
53890;SDS011;41337;51.400;-2.342;2023-10-19T19:39:19;7.68;;;2.08;;
53890;SDS011;41337;51.400;-2.342;2023-10-19T19:44:20;10.90;;;2.83;;
53890;SDS011;41337;51.400;-2.342;2023-10-19T19:54:46;10.15;;;2.25;;
53890;SDS011;41337;51.400;-2.342;2023-10-19T19:59:47;11.43;;;2.30;;
53890;SDS011;41337;51.400;-2.342;2023-10-19T20:04:52;7.78;;;2.30;;
53890;SDS011;41337;51.400;-2.342;2023-10-19T20:09:52;17.58;;;2.80;;
53890;SDS011;41337;51.400;-2.342;2023-10-19T20:14:55;10.63;;;3.22;;
53890;SDS011;41337;51.400;-2.342;2023-10-19T20:19:56;10.18;;;3.70;;
53890;SDS011;41337;51.400;-2.342;2023-10-19T20:24:57;17.98;;;4.47;;
53890;SDS011;41337;51.400;-2.342;2023-10-19T20:29:58;18.95;;;4.50;;
53890;SDS011;41337;51.400;-2.342;2023-10-19T20:34:58;24.83;;;4.40;;
53890;SDS011;41337;51.400;-2.342;2023-10-19T20:39:59;20.95;;;4.70;;
53890;SDS011;41337;51.400;-2.342;2023-10-19T20:45:04;22.98;;;4.65;;
53890;SDS011;41337;51.400;-2.342;2023-10-19T20:50:05;19.58;;;4.15;;
53890;SDS011;41337;51.400;-2.342;2023-10-19T20:55:08;20.73;;;3.90;;
53890;SDS011;41337;51.400;-2.342;2023-10-19T21:00:09;19.50;;;4.22;;
53890;SDS011;41337;51.400;-2.342;2023-10-19T21:05:13;23.55;;;4.15;;
53890;SDS011;41337;51.400;-2.342;2023-10-19T21:10:17;26.13;;;4.88;;
53890;SDS011;41337;51.400;-2.342;2023-10-19T21:15:18;26.98;;;4.93;;
53890;SDS011;41337;51.400;-2.342;2023-10-19T21:20:19;24.38;;;4.60;;
53890;SDS011;41337;51.400;-2.342;2023-10-19T21:25:20;26.58;;;4.45;;
53890;SDS011;41337;51.400;-2.342;2023-10-19T21:30:21;15.68;;;4.40;;
53890;SDS011;41337;51.400;-2.342;2023-10-19T21:35:22;20.15;;;4.70;;
53890;SDS011;41337;51.400;-2.342;2023-10-19T21:40:23;15.20;;;4.22;;
53890;SDS011;41337;51.400;-2.342;2023-10-19T21:45:24;24.55;;;4.72;;
53890;SDS011;41337;51.400;-2.342;2023-10-19T21:50:25;23.85;;;5.45;;
53890;SDS011;41337;51.400;-2.342;2023-10-19T21:55:26;24.42;;;4.43;;
53890;SDS011;41337;51.400;-2.342;2023-10-19T22:00:27;23.13;;;4.80;;
53890;SDS011;41337;51.400;-2.342;2023-10-19T22:05:31;22.17;;;4.97;;
53890;SDS011;41337;51.400;-2.342;2023-10-19T22:10:33;27.13;;;4.53;;
53890;SDS011;41337;51.400;-2.342;2023-10-19T22:15:34;35.10;;;5.47;;
53890;SDS011;41337;51.400;-2.342;2023-10-19T22:20:36;23.80;;;3.97;;
53890;SDS011;41337;51.400;-2.342;2023-10-19T22:25:37;21.52;;;4.32;;
53890;SDS011;41337;51.400;-2.342;2023-10-19T22:30:39;25.55;;;4.95;;
53890;SDS011;41337;51.400;-2.342;2023-10-19T22:35:40;25.70;;;5.03;;
53890;SDS011;41337;51.400;-2.342;2023-10-19T22:40:42;27.58;;;4.18;;
53890;SDS011;41337;51.400;-2.342;2023-10-19T22:45:46;25.70;;;4.25;;
53890;SDS011;41337;51.400;-2.342;2023-10-19T22:50:47;19.40;;;4.60;;
53890;SDS011;41337;51.400;-2.342;2023-10-19T22:55:48;21.35;;;4.00;;
53890;SDS011;41337;51.400;-2.342;2023-10-19T23:00:48;26.77;;;4.78;;
53890;SDS011;41337;51.400;-2.342;2023-10-19T23:05:49;25.80;;;4.30;;
53890;SDS011;41337;51.400;-2.342;2023-10-19T23:10:53;24.23;;;4.60;;
53890;SDS011;41337;51.400;-2.342;2023-10-19T23:15:56;17.77;;;3.80;;
53890;SDS011;41337;51.400;-2.342;2023-10-19T23:21:00;22.02;;;4.63;;
53890;SDS011;41337;51.400;-2.342;2023-10-19T23:26:04;23.40;;;4.05;;
53890;SDS011;41337;51.400;-2.342;2023-10-19T23:31:07;15.25;;;4.05;;
53890;SDS011;41337;51.400;-2.342;2023-10-19T23:36:08;16.33;;;4.13;;
53890;SDS011;41337;51.400;-2.342;2023-10-19T23:41:09;26.80;;;4.53;;
53890;SDS011;41337;51.400;-2.342;2023-10-19T23:46:10;14.73;;;4.40;;
53890;SDS011;41337;51.400;-2.342;2023-10-19T23:51:11;16.55;;;3.90;;
53890;SDS011;41337;51.400;-2.342;2023-10-19T23:56:12;26.00;;;4.72;;
